Asheville Regional Airport Asheville US
ICAO: KAVL
IATA: AVL
Category: Large
Scheduled Services: Yes

Elevation: 2165 ft
TransAlt. 18000 ft.

Airport Communications:
APP/DEP:124.65
ATIS:120.2
CTAF:121.1
GND:121.9
TWR:121.1
UNICOM:122.95

KAVL Zoom In..

If Map Doesn't Load, Click Here

Runways:

(A) RW 16 length 8001 ft width 150 ft
ILS 110.90 / hdg 164

(B) RW 34 length 8001 ft width 150 ft
ILS 110.50 / hdg 344

Location; KAVL
Day. 24 / Time. 05.54 Zulu
* Altimeter: 30.21
* Temperature: 19° c. 66.2°f.
* Wind from: 160° Speed 04 kn.
Dewpoint: 18° c.
Visibility: 8 Statute Miles.
Clouds: Clear (automated report).

KAVL 240554Z AUTO 16004KT 8SM CLR 19/18 A3021 RMK AO2 SLP202 T01940183 10228 20194 51009 $


Wind From 160°
Speed 04 kn.

 
 
jpsmedia.com for Web Design worldairports.se 2018   terms of use